sensor_id;sensor_type;location;lat;lon;timestamp;pressure;altitude;pressure_sealevel;temperature;humidity
20043;BME280;10182;52.896;6.496;2023-06-14T00:04:02;101532.81;;;16.40;98.21
20043;BME280;10182;52.896;6.496;2023-06-14T00:09:05;101542.50;;;16.27;100.00
20043;BME280;10182;52.896;6.496;2023-06-14T00:14:10;101535.09;;;16.16;100.00
20043;BME280;10182;52.896;6.496;2023-06-14T00:19:12;101537.16;;;16.11;100.00
20043;BME280;10182;52.896;6.496;2023-06-14T00:24:13;101543.13;;;16.00;100.00
20043;BME280;10182;52.896;6.496;2023-06-14T00:29:16;101547.94;;;15.94;100.00
20043;BME280;10182;52.896;6.496;2023-06-14T00:34:18;101541.41;;;15.83;100.00
20043;BME280;10182;52.896;6.496;2023-06-14T00:39:20;101545.03;;;15.82;100.00
20043;BME280;10182;52.896;6.496;2023-06-14T00:44:23;101551.09;;;15.68;100.00
20043;BME280;10182;52.896;6.496;2023-06-14T00:49:24;101541.44;;;15.66;100.00
20043;BME280;10182;52.896;6.496;2023-06-14T00:54:26;101543.69;;;15.57;100.00
20043;BME280;10182;52.896;6.496;2023-06-14T00:59:29;101547.47;;;15.53;100.00
20043;BME280;10182;52.896;6.496;2023-06-14T01:04:31;101552.63;;;15.56;100.00
20043;BME280;10182;52.896;6.496;2023-06-14T01:09:38;101554.25;;;15.43;100.00
20043;BME280;10182;52.896;6.496;2023-06-14T01:14:47;101555.88;;;15.30;100.00
20043;BME280;10182;52.896;6.496;2023-06-14T01:19:51;101558.00;;;15.23;100.00
20043;BME280;10182;52.896;6.496;2023-06-14T01:24:59;101555.00;;;15.29;100.00
20043;BME280;10182;52.896;6.496;2023-06-14T01:30:01;101547.81;;;15.14;100.00
20043;BME280;10182;52.896;6.496;2023-06-14T01:35:03;101550.88;;;15.06;100.00
20043;BME280;10182;52.896;6.496;2023-06-14T01:40:08;101549.31;;;15.02;100.00
20043;BME280;10182;52.896;6.496;2023-06-14T01:45:11;101555.47;;;14.86;100.00
20043;BME280;10182;52.896;6.496;2023-06-14T01:50:13;101563.72;;;14.82;100.00
20043;BME280;10182;52.896;6.496;2023-06-14T01:55:16;101565.97;;;14.72;100.00
20043;BME280;10182;52.896;6.496;2023-06-14T02:00:18;101563.47;;;14.69;100.00
20043;BME280;10182;52.896;6.496;2023-06-14T02:05:20;101561.56;;;14.53;100.00
20043;BME280;10182;52.896;6.496;2023-06-14T02:10:23;101559.09;;;14.49;100.00
20043;BME280;10182;52.896;6.496;2023-06-14T02:15:25;101563.94;;;14.41;100.00
20043;BME280;10182;52.896;6.496;2023-06-14T02:20:33;101560.75;;;14.34;100.00
20043;BME280;10182;52.896;6.496;2023-06-14T02:25:37;101556.13;;;14.37;100.00
20043;BME280;10182;52.896;6.496;2023-06-14T02:30:40;101564.13;;;14.37;100.00
20043;BME280;10182;52.896;6.496;2023-06-14T02:35:41;101566.44;;;14.26;100.00
20043;BME280;10182;52.896;6.496;2023-06-14T02:40:44;101565.25;;;14.14;100.00
20043;BME280;10182;52.896;6.496;2023-06-14T02:45:47;101567.53;;;14.22;100.00
20043;BME280;10182;52.896;6.496;2023-06-14T02:50:48;101564.81;;;14.04;100.00
20043;BME280;10182;52.896;6.496;2023-06-14T02:55:51;101572.91;;;14.03;100.00
20043;BME280;10182;52.896;6.496;2023-06-14T03:00:56;101574.34;;;13.91;100.00
20043;BME280;10182;52.896;6.496;2023-06-14T03:05:58;101578.66;;;13.94;100.00
20043;BME280;10182;52.896;6.496;2023-06-14T03:11:06;101580.66;;;13.88;100.00
20043;BME280;10182;52.896;6.496;2023-06-14T03:16:08;101579.97;;;13.85;100.00
20043;BME280;10182;52.896;6.496;2023-06-14T03:21:10;101581.06;;;13.81;100.00
20043;BME280;10182;52.896;6.496;2023-06-14T03:26:13;101584.38;;;13.86;100.00
20043;BME280;10182;52.896;6.496;2023-06-14T03:31:15;101591.78;;;13.79;100.00
20043;BME280;10182;52.896;6.496;2023-06-14T03:36:17;101592.28;;;13.68;100.00
20043;BME280;10182;52.896;6.496;2023-06-14T03:41:20;101596.63;;;13.69;100.00
20043;BME280;10182;52.896;6.496;2023-06-14T03:46:22;101591.38;;;13.68;100.00
20043;BME280;10182;52.896;6.496;2023-06-14T03:51:23;101605.66;;;13.67;100.00
20043;BME280;10182;52.896;6.496;2023-06-14T03:56:27;101604.44;;;13.74;100.00
20043;BME280;10182;52.896;6.496;2023-06-14T04:01:28;101609.59;;;13.77;100.00
20043;BME280;10182;52.896;6.496;2023-06-14T04:06:31;101611.78;;;13.88;100.00
20043;BME280;10182;52.896;6.496;2023-06-14T04:11:34;101619.75;;;14.26;100.00
20043;BME280;10182;52.896;6.496;2023-06-14T04:16:36;101631.44;;;14.60;100.00
20043;BME280;10182;52.896;6.496;2023-06-14T04:21:38;101627.28;;;14.72;100.00
20043;BME280;10182;52.896;6.496;2023-06-14T04:26:42;101636.81;;;14.95;100.00
20043;BME280;10182;52.896;6.496;2023-06-14T04:31:45;101646.25;;;15.02;100.00
20043;BME280;10182;52.896;6.496;2023-06-14T04:36:47;101652.81;;;15.30;100.00
20043;BME280;10182;52.896;6.496;2023-06-14T04:41:54;101653.41;;;15.53;100.00
20043;BME280;10182;52.896;6.496;2023-06-14T04:47:00;101654.84;;;15.76;100.00
20043;BME280;10182;52.896;6.496;2023-06-14T04:52:02;101671.28;;;16.02;100.00
20043;BME280;10182;52.896;6.496;2023-06-14T04:57:06;101670.44;;;16.33;100.00
20043;BME280;10182;52.896;6.496;2023-06-14T05:02:07;101675.78;;;16.33;100.00
20043;BME280;10182;52.896;6.496;2023-06-14T05:07:09;101677.59;;;16.17;100.00
20043;BME280;10182;52.896;6.496;2023-06-14T05:12:12;101689.56;;;16.57;100.00
20043;BME280;10182;52.896;6.496;2023-06-14T05:17:14;101690.00;;;16.66;100.00
20043;BME280;10182;52.896;6.496;2023-06-14T05:22:17;101694.03;;;16.73;100.00
20043;BME280;10182;52.896;6.496;2023-06-14T05:27:20;101691.22;;;16.76;100.00
20043;BME280;10182;52.896;6.496;2023-06-14T05:32:21;101690.78;;;16.68;100.00
20043;BME280;10182;52.896;6.496;2023-06-14T05:37:23;101700.94;;;16.77;100.00
20043;BME280;10182;52.896;6.496;2023-06-14T05:42:26;101694.84;;;16.91;100.00
20043;BME280;10182;52.896;6.496;2023-06-14T05:47:28;101707.25;;;16.92;100.00
20043;BME280;10182;52.896;6.496;2023-06-14T05:52:30;101704.31;;;16.97;100.00
20043;BME280;10182;52.896;6.496;2023-06-14T05:57:33;101700.09;;;17.23;100.00
20043;BME280;10182;52.896;6.496;2023-06-14T06:02:34;101702.31;;;17.31;100.00
20043;BME280;10182;52.896;6.496;2023-06-14T06:07:36;101712.38;;;17.41;100.00
20043;BME280;10182;52.896;6.496;2023-06-14T06:12:42;101711.75;;;17.52;100.00
20043;BME280;10182;52.896;6.496;2023-06-14T06:17:44;101714.88;;;17.59;100.00
20043;BME280;10182;52.896;6.496;2023-06-14T06:22:45;101716.63;;;17.60;100.00
20043;BME280;10182;52.896;6.496;2023-06-14T06:27:48;101715.66;;;17.75;100.00
20043;BME280;10182;52.896;6.496;2023-06-14T06:32:50;101718.56;;;17.87;100.00
20043;BME280;10182;52.896;6.496;2023-06-14T06:37:52;101716.69;;;18.03;100.00
20043;BME280;10182;52.896;6.496;2023-06-14T06:42:55;101724.41;;;18.22;100.00
20043;BME280;10182;52.896;6.496;2023-06-14T06:47:57;101728.03;;;18.36;100.00
20043;BME280;10182;52.896;6.496;2023-06-14T06:52:58;101732.56;;;18.63;100.00
20043;BME280;10182;52.896;6.496;2023-06-14T06:58:01;101731.97;;;18.72;100.00
20043;BME280;10182;52.896;6.496;2023-06-14T07:03:06;101745.53;;;18.98;100.00
20043;BME280;10182;52.896;6.496;2023-06-14T07:08:08;101753.44;;;19.26;100.00
20043;BME280;10182;52.896;6.496;2023-06-14T07:13:11;101755.53;;;19.49;100.00
20043;BME280;10182;52.896;6.496;2023-06-14T07:18:13;101759.44;;;19.57;100.00
20043;BME280;10182;52.896;6.496;2023-06-14T07:23:14;101768.06;;;19.88;100.00
20043;BME280;10182;52.896;6.496;2023-06-14T07:28:18;101753.88;;;20.12;96.84
20043;BME280;10182;52.896;6.496;2023-06-14T07:33:19;101758.38;;;20.24;94.59
20043;BME280;10182;52.896;6.496;2023-06-14T07:38:21;101760.91;;;20.39;93.36
20043;BME280;10182;52.896;6.496;2023-06-14T07:43:24;101754.75;;;20.50;91.34
20043;BME280;10182;52.896;6.496;2023-06-14T07:48:26;101761.06;;;20.61;91.14
20043;BME280;10182;52.896;6.496;2023-06-14T07:53:28;101755.34;;;20.66;89.29
20043;BME280;10182;52.896;6.496;2023-06-14T07:58:32;101764.84;;;20.96;89.66
20043;BME280;10182;52.896;6.496;2023-06-14T08:03:34;101761.69;;;21.02;90.56
20043;BME280;10182;52.896;6.496;2023-06-14T08:08:35;101763.88;;;20.97;83.55
20043;BME280;10182;52.896;6.496;2023-06-14T08:13:38;101769.06;;;21.36;80.56
20043;BME280;10182;52.896;6.496;2023-06-14T08:18:40;101777.16;;;21.47;81.69
20043;BME280;10182;52.896;6.496;2023-06-14T08:23:42;101773.81;;;21.68;76.98
20043;BME280;10182;52.896;6.496;2023-06-14T08:28:45;101758.03;;;21.74;79.50
20043;BME280;10182;52.896;6.496;2023-06-14T08:33:47;101760.00;;;21.95;78.24
20043;BME280;10182;52.896;6.496;2023-06-14T08:38:48;101767.97;;;21.74;71.07
20043;BME280;10182;52.896;6.496;2023-06-14T08:43:52;101773.09;;;21.77;68.39
20043;BME280;10182;52.896;6.496;2023-06-14T08:48:55;101762.97;;;22.26;70.04
20043;BME280;10182;52.896;6.496;2023-06-14T08:53:58;101752.94;;;22.39;69.87
20043;BME280;10182;52.896;6.496;2023-06-14T08:59:03;101751.66;;;22.32;72.46
20043;BME280;10182;52.896;6.496;2023-06-14T09:04:05;101752.75;;;22.63;71.24
20043;BME280;10182;52.896;6.496;2023-06-14T09:09:07;101761.63;;;22.43;72.66
20043;BME280;10182;52.896;6.496;2023-06-14T09:14:10;101755.75;;;22.49;69.20
20043;BME280;10182;52.896;6.496;2023-06-14T09:19:20;101761.28;;;22.91;68.96
20043;BME280;10182;52.896;6.496;2023-06-14T09:24:24;101762.63;;;22.42;68.18
20043;BME280;10182;52.896;6.496;2023-06-14T09:29:28;101766.88;;;22.67;64.14
20043;BME280;10182;52.896;6.496;2023-06-14T09:34:31;101755.88;;;22.91;65.12
20043;BME280;10182;52.896;6.496;2023-06-14T09:39:34;101762.72;;;22.52;65.03
20043;BME280;10182;52.896;6.496;2023-06-14T09:44:37;101775.25;;;22.41;68.26
20043;BME280;10182;52.896;6.496;2023-06-14T09:49:39;101760.41;;;22.91;64.22
20043;BME280;10182;52.896;6.496;2023-06-14T09:54:42;101765.34;;;23.29;66.30
20043;BME280;10182;52.896;6.496;2023-06-14T09:59:48;101763.81;;;23.04;60.23
20043;BME280;10182;52.896;6.496;2023-06-14T10:04:58;101755.28;;;22.88;61.39
20043;BME280;10182;52.896;6.496;2023-06-14T10:10:02;101754.47;;;23.41;63.88
20043;BME280;10182;52.896;6.496;2023-06-14T10:15:09;101749.38;;;23.26;64.37
20043;BME280;10182;52.896;6.496;2023-06-14T10:20:20;101739.97;;;23.09;63.27
20043;BME280;10182;52.896;6.496;2023-06-14T10:25:26;101750.00;;;22.86;62.13
20043;BME280;10182;52.896;6.496;2023-06-14T10:30:30;101747.47;;;23.38;57.08
20043;BME280;10182;52.896;6.496;2023-06-14T10:35:32;101746.75;;;23.57;55.74
20043;BME280;10182;52.896;6.496;2023-06-14T10:40:34;101741.72;;;23.74;55.52
20043;BME280;10182;52.896;6.496;2023-06-14T10:46:16;101754.25;;;23.32;55.76
20043;BME280;10182;52.896;6.496;2023-06-14T10:51:19;101750.19;;;23.38;56.46
20043;BME280;10182;52.896;6.496;2023-06-14T10:56:28;101761.38;;;23.76;54.97
20043;BME280;10182;52.896;6.496;2023-06-14T11:01:37;101746.06;;;23.86;53.91
20043;BME280;10182;52.896;6.496;2023-06-14T11:06:47;101727.78;;;24.30;52.53
20043;BME280;10182;52.896;6.496;2023-06-14T11:11:50;101723.38;;;24.49;52.54
20043;BME280;10182;52.896;6.496;2023-06-14T11:16:54;101722.72;;;24.16;53.32
20043;BME280;10182;52.896;6.496;2023-06-14T11:21:56;101729.25;;;24.54;52.71
20043;BME280;10182;52.896;6.496;2023-06-14T11:26:58;101719.97;;;24.47;53.55
20043;BME280;10182;52.896;6.496;2023-06-14T11:32:01;101721.81;;;24.56;52.19
20043;BME280;10182;52.896;6.496;2023-06-14T11:37:03;101722.50;;;24.39;51.71
20043;BME280;10182;52.896;6.496;2023-06-14T11:42:05;101724.09;;;24.01;51.93
20043;BME280;10182;52.896;6.496;2023-06-14T11:47:09;101705.94;;;24.22;54.50
20043;BME280;10182;52.896;6.496;2023-06-14T11:52:10;101721.75;;;24.27;52.73
20043;BME280;10182;52.896;6.496;2023-06-14T11:57:12;101708.94;;;24.29;53.22
20043;BME280;10182;52.896;6.496;2023-06-14T12:02:15;101706.47;;;24.96;52.67
20043;BME280;10182;52.896;6.496;2023-06-14T12:07:18;101710.91;;;24.97;54.05
20043;BME280;10182;52.896;6.496;2023-06-14T12:12:20;101711.63;;;24.99;52.79
20043;BME280;10182;52.896;6.496;2023-06-14T12:17:23;101715.19;;;24.99;52.16
20043;BME280;10182;52.896;6.496;2023-06-14T12:22:28;101712.91;;;24.75;51.54
20043;BME280;10182;52.896;6.496;2023-06-14T12:27:30;101714.63;;;24.76;52.42
20043;BME280;10182;52.896;6.496;2023-06-14T12:32:34;101711.50;;;25.00;51.65
20043;BME280;10182;52.896;6.496;2023-06-14T12:37:36;101704.44;;;25.57;51.55
20043;BME280;10182;52.896;6.496;2023-06-14T12:42:38;101713.06;;;24.93;51.21
20043;BME280;10182;52.896;6.496;2023-06-14T12:47:41;101702.34;;;24.82;49.98
20043;BME280;10182;52.896;6.496;2023-06-14T12:52:43;101699.75;;;25.29;49.91
20043;BME280;10182;52.896;6.496;2023-06-14T12:57:45;101704.09;;;25.70;49.57
20043;BME280;10182;52.896;6.496;2023-06-14T13:02:51;101706.81;;;25.70;48.77
20043;BME280;10182;52.896;6.496;2023-06-14T13:07:52;101707.03;;;25.19;49.28
20043;BME280;10182;52.896;6.496;2023-06-14T13:12:54;101713.03;;;25.32;48.69
20043;BME280;10182;52.896;6.496;2023-06-14T13:17:59;101715.75;;;25.90;50.87
20043;BME280;10182;52.896;6.496;2023-06-14T13:23:01;101714.81;;;25.81;49.17
20043;BME280;10182;52.896;6.496;2023-06-14T13:28:04;101703.63;;;26.22;49.99
20043;BME280;10182;52.896;6.496;2023-06-14T13:33:08;101711.66;;;26.13;48.04
20043;BME280;10182;52.896;6.496;2023-06-14T13:38:10;101708.16;;;26.03;48.32
20043;BME280;10182;52.896;6.496;2023-06-14T13:43:11;101715.72;;;25.62;49.10
20043;BME280;10182;52.896;6.496;2023-06-14T13:48:14;101723.34;;;25.39;48.61
20043;BME280;10182;52.896;6.496;2023-06-14T13:53:16;101722.59;;;25.27;48.70
20043;BME280;10182;52.896;6.496;2023-06-14T13:58:18;101707.72;;;25.98;47.28
20043;BME280;10182;52.896;6.496;2023-06-14T14:03:21;101711.22;;;25.80;47.02
20043;BME280;10182;52.896;6.496;2023-06-14T14:08:23;101706.16;;;25.95;48.39
20043;BME280;10182;52.896;6.496;2023-06-14T14:13:25;101696.84;;;26.35;46.73
20043;BME280;10182;52.896;6.496;2023-06-14T14:18:28;101697.34;;;26.21;45.71
20043;BME280;10182;52.896;6.496;2023-06-14T14:23:29;101691.69;;;26.32;46.80
20043;BME280;10182;52.896;6.496;2023-06-14T14:28:31;101679.00;;;26.33;45.88
20043;BME280;10182;52.896;6.496;2023-06-14T14:33:35;101688.41;;;26.57;45.68
20043;BME280;10182;52.896;6.496;2023-06-14T14:38:36;101686.16;;;26.52;45.07
20043;BME280;10182;52.896;6.496;2023-06-14T14:43:38;101682.91;;;27.02;45.05
20043;BME280;10182;52.896;6.496;2023-06-14T14:48:41;101687.78;;;27.17;44.89
20043;BME280;10182;52.896;6.496;2023-06-14T14:53:43;101686.97;;;26.80;45.53
20043;BME280;10182;52.896;6.496;2023-06-14T14:58:45;101695.47;;;26.67;45.31
20043;BME280;10182;52.896;6.496;2023-06-14T15:03:50;101692.19;;;26.64;45.79
20043;BME280;10182;52.896;6.496;2023-06-14T15:08:52;101682.88;;;26.66;44.01
20043;BME280;10182;52.896;6.496;2023-06-14T15:13:53;101689.16;;;26.77;45.65
20043;BME280;10182;52.896;6.496;2023-06-14T15:18:56;101688.47;;;26.65;43.43
20043;BME280;10182;52.896;6.496;2023-06-14T15:23:58;101687.91;;;26.43;46.39
20043;BME280;10182;52.896;6.496;2023-06-14T15:29:00;101683.69;;;26.13;43.75
20043;BME280;10182;52.896;6.496;2023-06-14T15:34:03;101683.47;;;26.24;44.70
20043;BME280;10182;52.896;6.496;2023-06-14T15:39:04;101683.84;;;26.11;45.92
20043;BME280;10182;52.896;6.496;2023-06-14T15:44:06;101680.91;;;26.23;46.19
20043;BME280;10182;52.896;6.496;2023-06-14T15:49:10;101691.50;;;25.21;47.84
20043;BME280;10182;52.896;6.496;2023-06-14T15:54:12;101690.97;;;24.88;47.48
20043;BME280;10182;52.896;6.496;2023-06-14T15:59:13;101688.34;;;24.57;46.69
20043;BME280;10182;52.896;6.496;2023-06-14T16:04:17;101677.34;;;24.59;47.86
20043;BME280;10182;52.896;6.496;2023-06-14T16:09:18;101672.41;;;25.03;47.28
20043;BME280;10182;52.896;6.496;2023-06-14T16:14:20;101669.09;;;25.19;48.10
20043;BME280;10182;52.896;6.496;2023-06-14T16:19:23;101666.94;;;25.52;47.97
20043;BME280;10182;52.896;6.496;2023-06-14T16:24:25;101654.09;;;25.82;47.57
20043;BME280;10182;52.896;6.496;2023-06-14T16:29:26;101667.97;;;25.79;45.59
20043;BME280;10182;52.896;6.496;2023-06-14T16:34:29;101669.66;;;25.42;45.52
20043;BME280;10182;52.896;6.496;2023-06-14T16:39:33;101674.28;;;24.83;47.11
20043;BME280;10182;52.896;6.496;2023-06-14T16:44:34;101679.16;;;24.29;48.27
20043;BME280;10182;52.896;6.496;2023-06-14T16:49:37;101664.75;;;24.09;50.82
20043;BME280;10182;52.896;6.496;2023-06-14T16:54:39;101675.38;;;25.20;48.26
20043;BME280;10182;52.896;6.496;2023-06-14T16:59:41;101660.34;;;28.40;42.98
20043;BME280;10182;52.896;6.496;2023-06-14T17:04:44;101670.25;;;27.11;44.07
20043;BME280;10182;52.896;6.496;2023-06-14T17:09:46;101677.63;;;26.65;42.81
20043;BME280;10182;52.896;6.496;2023-06-14T17:14:47;101677.94;;;25.41;46.78
20043;BME280;10182;52.896;6.496;2023-06-14T17:19:50;101683.50;;;24.61;48.69
20043;BME280;10182;52.896;6.496;2023-06-14T17:24:52;101679.59;;;24.34;50.07
20043;BME280;10182;52.896;6.496;2023-06-14T17:29:54;101688.69;;;24.23;49.27
20043;BME280;10182;52.896;6.496;2023-06-14T17:34:57;101685.22;;;24.02;50.66
20043;BME280;10182;52.896;6.496;2023-06-14T17:39:59;101691.09;;;24.16;52.13
20043;BME280;10182;52.896;6.496;2023-06-14T17:45:00;101689.13;;;24.28;50.51
20043;BME280;10182;52.896;6.496;2023-06-14T17:50:05;101686.22;;;24.51;50.11
20043;BME280;10182;52.896;6.496;2023-06-14T17:55:07;101698.22;;;24.78;48.52
20043;BME280;10182;52.896;6.496;2023-06-14T18:00:10;101704.06;;;24.83;47.95
20043;BME280;10182;52.896;6.496;2023-06-14T18:05:13;101697.94;;;24.71;47.99
20043;BME280;10182;52.896;6.496;2023-06-14T18:10:15;101698.66;;;24.63;48.44
20043;BME280;10182;52.896;6.496;2023-06-14T18:15:17;101699.25;;;24.26;49.14
20043;BME280;10182;52.896;6.496;2023-06-14T18:20:21;101702.66;;;24.19;50.29
20043;BME280;10182;52.896;6.496;2023-06-14T18:25:23;101704.84;;;23.94;52.65
20043;BME280;10182;52.896;6.496;2023-06-14T18:30:25;101705.84;;;23.72;52.78
20043;BME280;10182;52.896;6.496;2023-06-14T18:35:28;101712.34;;;23.59;54.96
20043;BME280;10182;52.896;6.496;2023-06-14T18:40:30;101721.94;;;23.52;57.61
20043;BME280;10182;52.896;6.496;2023-06-14T18:45:31;101726.84;;;23.37;57.41
20043;BME280;10182;52.896;6.496;2023-06-14T18:50:34;101739.03;;;23.31;61.26
20043;BME280;10182;52.896;6.496;2023-06-14T18:55:37;101738.94;;;22.89;83.39
20043;BME280;10182;52.896;6.496;2023-06-14T19:00:38;101741.50;;;22.58;100.00
20043;BME280;10182;52.896;6.496;2023-06-14T19:05:42;101739.81;;;22.46;100.00
20043;BME280;10182;52.896;6.496;2023-06-14T19:10:44;101750.47;;;22.36;100.00
20043;BME280;10182;52.896;6.496;2023-06-14T19:15:45;101753.41;;;22.10;100.00
20043;BME280;10182;52.896;6.496;2023-06-14T19:20:52;101762.69;;;21.95;100.00
20043;BME280;10182;52.896;6.496;2023-06-14T19:25:54;101770.66;;;21.85;100.00
20043;BME280;10182;52.896;6.496;2023-06-14T19:30:56;101783.75;;;21.67;100.00
20043;BME280;10182;52.896;6.496;2023-06-14T19:35:59;101791.22;;;21.63;100.00
20043;BME280;10182;52.896;6.496;2023-06-14T19:41:01;101785.84;;;21.39;100.00
20043;BME280;10182;52.896;6.496;2023-06-14T19:46:02;101791.47;;;21.36;100.00
20043;BME280;10182;52.896;6.496;2023-06-14T19:51:05;101799.13;;;21.29;100.00
20043;BME280;10182;52.896;6.496;2023-06-14T19:56:07;101801.91;;;21.17;100.00
20043;BME280;10182;52.896;6.496;2023-06-14T20:01:09;101802.31;;;20.99;100.00
20043;BME280;10182;52.896;6.496;2023-06-14T20:06:12;101813.69;;;20.78;100.00
20043;BME280;10182;52.896;6.496;2023-06-14T20:11:13;101813.50;;;20.69;100.00
20043;BME280;10182;52.896;6.496;2023-06-14T20:16:16;101819.00;;;20.54;100.00
20043;BME280;10182;52.896;6.496;2023-06-14T20:21:19;101818.91;;;20.43;100.00
20043;BME280;10182;52.896;6.496;2023-06-14T20:26:21;101824.94;;;20.34;100.00
20043;BME280;10182;52.896;6.496;2023-06-14T20:31:23;101831.84;;;20.12;100.00
20043;BME280;10182;52.896;6.496;2023-06-14T20:36:26;101837.66;;;20.06;100.00
20043;BME280;10182;52.896;6.496;2023-06-14T20:41:30;101846.25;;;19.85;100.00
20043;BME280;10182;52.896;6.496;2023-06-14T20:46:31;101842.63;;;19.72;100.00
20043;BME280;10182;52.896;6.496;2023-06-14T20:51:37;101838.66;;;19.65;100.00
20043;BME280;10182;52.896;6.496;2023-06-14T20:56:38;101846.59;;;19.53;100.00
20043;BME280;10182;52.896;6.496;2023-06-14T21:01:40;101847.81;;;19.35;100.00
20043;BME280;10182;52.896;6.496;2023-06-14T21:06:44;101844.56;;;19.30;100.00
20043;BME280;10182;52.896;6.496;2023-06-14T21:11:46;101844.09;;;19.23;100.00
20043;BME280;10182;52.896;6.496;2023-06-14T21:16:47;101848.75;;;19.06;100.00
20043;BME280;10182;52.896;6.496;2023-06-14T21:21:52;101856.16;;;19.03;100.00
20043;BME280;10182;52.896;6.496;2023-06-14T21:26:54;101858.00;;;18.88;100.00
20043;BME280;10182;52.896;6.496;2023-06-14T21:31:56;101856.94;;;18.76;100.00
20043;BME280;10182;52.896;6.496;2023-06-14T21:36:59;101863.06;;;18.64;100.00
20043;BME280;10182;52.896;6.496;2023-06-14T21:42:00;101856.28;;;18.58;100.00
20043;BME280;10182;52.896;6.496;2023-06-14T21:47:02;101858.84;;;18.45;100.00
20043;BME280;10182;52.896;6.496;2023-06-14T21:52:07;101859.63;;;18.33;100.00
20043;BME280;10182;52.896;6.496;2023-06-14T21:57:08;101865.75;;;18.20;100.00
20043;BME280;10182;52.896;6.496;2023-06-14T22:02:10;101857.41;;;18.10;100.00
20043;BME280;10182;52.896;6.496;2023-06-14T22:07:14;101863.31;;;18.01;100.00
20043;BME280;10182;52.896;6.496;2023-06-14T22:12:17;101868.03;;;17.98;100.00
20043;BME280;10182;52.896;6.496;2023-06-14T22:17:21;101862.47;;;17.70;100.00
20043;BME280;10182;52.896;6.496;2023-06-14T22:22:24;101863.19;;;17.58;100.00
20043;BME280;10182;52.896;6.496;2023-06-14T22:27:26;101868.38;;;17.45;100.00
20043;BME280;10182;52.896;6.496;2023-06-14T22:32:28;101864.31;;;17.54;100.00
20043;BME280;10182;52.896;6.496;2023-06-14T22:37:34;101873.91;;;17.42;100.00
20043;BME280;10182;52.896;6.496;2023-06-14T22:42:39;101878.25;;;17.29;100.00
20043;BME280;10182;52.896;6.496;2023-06-14T22:47:46;101867.28;;;17.17;100.00
20043;BME280;10182;52.896;6.496;2023-06-14T22:52:49;101866.16;;;17.05;100.00
20043;BME280;10182;52.896;6.496;2023-06-14T22:57:50;101864.78;;;16.98;100.00
20043;BME280;10182;52.896;6.496;2023-06-14T23:02:52;101865.94;;;16.77;100.00
20043;BME280;10182;52.896;6.496;2023-06-14T23:07:55;101865.78;;;16.64;100.00
20043;BME280;10182;52.896;6.496;2023-06-14T23:12:57;101867.91;;;16.57;100.00
20043;BME280;10182;52.896;6.496;2023-06-14T23:17:59;101862.34;;;16.44;100.00
20043;BME280;10182;52.896;6.496;2023-06-14T23:23:02;101864.63;;;16.18;100.00
20043;BME280;10182;52.896;6.496;2023-06-14T23:28:04;101870.44;;;16.09;100.00
20043;BME280;10182;52.896;6.496;2023-06-14T23:33:07;101858.78;;;16.10;100.00
20043;BME280;10182;52.896;6.496;2023-06-14T23:38:10;101859.88;;;16.06;100.00
20043;BME280;10182;52.896;6.496;2023-06-14T23:43:12;101867.13;;;16.04;100.00
20043;BME280;10182;52.896;6.496;2023-06-14T23:48:14;101859.66;;;15.93;100.00
20043;BME280;10182;52.896;6.496;2023-06-14T23:53:17;101863.69;;;15.84;100.00
20043;BME280;10182;52.896;6.496;2023-06-14T23:58:20;101856.88;;;15.77;100.00
